Time;durP1;ratioP1;P1;durP2;ratioP2;P2;SDS_P1;SDS_P2;PMS_P1;PMS_P2;Temp;Humidity;BMP_temperature;BMP_pressure;BME280_temperature;BME280_humidity;BME280_pressure;Samples;Min_cycle;Max_cycle;Signal;HPM_P1;HPM_P2
2024/02/11 00:01:09;;;;;;;56.25;35.25;;;10.40;99.90;;;;;;5059173;28;20218;-52
2024/02/11 00:03:37;;;;;;;56.92;37.08;;;10.40;99.90;;;;;;5058646;28;20195;-55
2024/02/11 00:06:08;;;;;;;55.28;35.38;;;10.30;99.90;;;;;;5058968;28;20914;-51
2024/02/11 00:08:36;;;;;;;57.10;35.58;;;10.30;99.90;;;;;;5057908;28;20194;-51
2024/02/11 00:11:01;;;;;;;53.03;33.58;;;10.30;99.90;;;;;;5059217;28;21050;-51
2024/02/11 00:13:29;;;;;;;55.50;33.78;;;10.30;99.90;;;;;;5059422;28;20187;-51
2024/02/11 00:15:55;;;;;;;49.83;33.78;;;10.30;99.90;;;;;;5059520;28;20175;-49
2024/02/11 00:18:23;;;;;;;54.58;33.67;;;10.30;99.90;;;;;;5059104;28;20557;-51
2024/02/11 00:20:49;;;;;;;51.25;33.25;;;10.30;99.90;;;;;;5062548;28;20198;-51
2024/02/11 00:23:15;;;;;;;52.95;33.53;;;10.30;99.90;;;;;;5077634;28;20657;-49
2024/02/11 00:25:40;;;;;;;49.83;33.63;;;10.30;99.90;;;;;;5062975;28;20217;-52
2024/02/11 00:28:09;;;;;;;47.13;31.23;;;10.20;99.90;;;;;;5062562;28;20179;-52
2024/02/11 00:30:38;;;;;;;48.55;32.33;;;10.30;99.90;;;;;;5061730;28;20282;-48
2024/02/11 00:33:05;;;;;;;50.65;31.83;;;10.20;99.90;;;;;;5062893;28;20191;-52
2024/02/11 00:35:30;;;;;;;50.28;32.30;;;10.20;99.90;;;;;;5056388;28;20233;-51
2024/02/11 00:37:58;;;;;;;45.22;29.85;;;10.20;99.90;;;;;;5062387;28;20218;-50
2024/02/11 00:40:24;;;;;;;51.47;31.52;;;10.20;99.90;;;;;;5062501;28;20238;-53
2024/02/11 00:42:51;;;;;;;47.70;30.92;;;10.20;99.90;;;;;;5062279;28;20193;-55
2024/02/11 00:45:17;;;;;;;47.05;30.98;;;10.20;99.90;;;;;;5061442;28;20212;-49
2024/02/11 00:47:43;;;;;;;48.08;31.10;;;10.20;99.90;;;;;;5062004;28;20194;-49
2024/02/11 00:50:13;;;;;;;46.40;30.75;;;10.20;99.90;;;;;;5062544;28;20194;-50
2024/02/11 00:52:40;;;;;;;48.40;31.08;;;10.20;99.90;;;;;;5062337;28;20197;-52
2024/02/11 00:55:10;;;;;;;50.20;32.08;;;10.20;99.90;;;;;;5061802;28;20221;-55
2024/02/11 00:57:36;;;;;;;47.90;31.77;;;10.20;99.90;;;;;;5061517;28;20233;-52
2024/02/11 01:00:13;;;;;;;46.83;30.13;;;10.20;99.90;;;;;;5061242;28;20199;-52
2024/02/11 01:02:39;;;;;;;48.72;31.00;;;10.10;99.90;;;;;;5062421;28;20231;-52
2024/02/11 01:05:05;;;;;;;49.50;31.73;;;10.20;99.90;;;;;;5061988;28;20318;-52
2024/02/11 01:07:38;;;;;;;55.47;32.88;;;10.10;99.90;;;;;;5061944;28;20264;-49
2024/02/11 01:10:08;;;;;;;54.05;32.83;;;10.10;99.90;;;;;;5061761;28;20191;-48
2024/02/11 01:12:34;;;;;;;55.63;33.55;;;10.10;99.90;;;;;;5061638;28;20190;-51
2024/02/11 01:15:00;;;;;;;54.08;33.13;;;10.20;99.90;;;;;;5061582;28;20187;-53
2024/02/11 01:17:26;;;;;;;56.65;33.70;;;10.10;99.90;;;;;;5062346;28;20206;-57
2024/02/11 01:19:52;;;;;;;51.42;30.35;;;10.10;99.90;;;;;;5061511;28;20231;-50
2024/02/11 01:22:18;;;;;;;57.70;33.42;;;10.10;99.90;;;;;;5060410;28;20316;-48
2024/02/11 01:24:44;;;;;;;57.72;32.03;;;10.10;99.90;;;;;;5061493;28;20286;-48
2024/02/11 01:27:09;;;;;;;60.63;34.55;;;10.10;99.90;;;;;;5062033;28;20183;-48
2024/02/11 01:29:38;;;;;;;62.20;32.20;;;10.00;99.90;;;;;;5061414;28;20240;-51
2024/02/11 01:32:05;;;;;;;57.53;32.70;;;10.10;99.90;;;;;;5060178;28;20627;-52
2024/02/11 01:34:31;;;;;;;54.70;30.92;;;10.00;99.90;;;;;;5061985;28;21120;-49
2024/02/11 01:36:57;;;;;;;61.60;30.08;;;10.00;99.90;;;;;;5062119;28;20201;-47
2024/02/11 01:39:23;;;;;;;57.47;29.55;;;10.00;99.90;;;;;;5054814;28;20222;-53
2024/02/11 01:41:49;;;;;;;63.15;31.83;;;9.90;99.90;;;;;;5061460;28;20183;-52
2024/02/11 01:44:17;;;;;;;66.50;32.20;;;9.90;99.90;;;;;;5061202;28;20211;-50
2024/02/11 01:46:44;;;;;;;66.47;32.60;;;9.90;99.90;;;;;;5061352;28;20653;-53
2024/02/11 01:49:11;;;;;;;67.93;31.08;;;9.90;99.90;;;;;;5061486;28;20182;-51
2024/02/11 01:51:44;;;;;;;60.55;30.45;;;9.80;99.90;;;;;;5060881;28;20195;-49
2024/02/11 01:54:15;;;;;;;68.40;31.70;;;9.80;99.90;;;;;;5060978;28;20197;-52
2024/02/11 01:56:41;;;;;;;74.72;31.38;;;9.80;99.90;;;;;;5061782;28;20193;-46
2024/02/11 01:59:07;;;;;;;61.55;29.27;;;9.70;99.90;;;;;;5061229;28;20186;-50
2024/02/11 02:01:36;;;;;;;71.57;29.23;;;9.70;99.90;;;;;;5061383;28;20248;-54
2024/02/11 02:04:03;;;;;;;70.40;29.85;;;9.70;99.90;;;;;;5060555;28;20202;-48
2024/02/11 02:06:29;;;;;;;72.18;31.65;;;9.60;99.90;;;;;;5061036;28;20182;-52
2024/02/11 02:08:57;;;;;;;67.95;28.40;;;9.60;99.90;;;;;;5060241;28;20197;-53
2024/02/11 02:11:24;;;;;;;69.22;30.98;;;9.60;99.90;;;;;;5060804;28;20551;-53
2024/02/11 02:13:50;;;;;;;71.97;29.83;;;9.60;99.90;;;;;;5060783;28;20198;-51
2024/02/11 02:16:16;;;;;;;76.30;30.15;;;9.50;99.90;;;;;;5060336;28;20530;-49
2024/02/11 02:18:45;;;;;;;69.10;29.83;;;9.50;99.90;;;;;;5059622;28;20256;-49
2024/02/11 02:21:11;;;;;;;62.53;29.38;;;9.50;99.90;;;;;;5060095;28;20545;-50
2024/02/11 02:23:37;;;;;;;77.05;30.30;;;9.50;99.90;;;;;;5060595;28;20195;-54
2024/02/11 02:26:08;;;;;;;78.90;31.10;;;9.40;99.90;;;;;;5060529;28;20174;-48
2024/02/11 02:28:36;;;;;;;61.80;28.48;;;9.50;99.90;;;;;;5060812;28;20188;-50
2024/02/11 02:31:04;;;;;;;77.82;29.73;;;9.40;99.90;;;;;;5061045;28;20174;-48
2024/02/11 02:33:30;;;;;;;71.07;29.73;;;9.40;99.90;;;;;;5060489;28;20991;-49
2024/02/11 02:35:55;;;;;;;67.30;30.00;;;9.40;99.90;;;;;;5058927;28;20210;-53
2024/02/11 02:38:21;;;;;;;69.20;27.63;;;9.40;99.90;;;;;;5060419;28;20210;-53
2024/02/11 02:40:47;;;;;;;72.88;29.85;;;9.40;99.90;;;;;;5059606;28;20242;-50
2024/02/11 02:43:13;;;;;;;76.25;29.40;;;9.40;99.90;;;;;;5059622;28;20182;-51
2024/02/11 02:45:39;;;;;;;81.20;30.33;;;9.40;99.90;;;;;;5059911;28;20210;-53
2024/02/11 02:48:06;;;;;;;81.03;31.73;;;9.30;99.90;;;;;;5060214;28;20628;-54
2024/02/11 02:50:32;;;;;;;69.90;30.73;;;9.30;99.90;;;;;;5060129;28;20198;-54
2024/02/11 02:52:58;;;;;;;89.72;32.15;;;9.30;99.90;;;;;;5060359;28;20199;-49
2024/02/11 02:55:24;;;;;;;73.70;30.85;;;9.30;99.90;;;;;;5059401;28;20194;-50
2024/02/11 02:57:51;;;;;;;71.32;31.27;;;9.30;99.90;;;;;;5059751;28;20282;-50
2024/02/11 03:00:18;;;;;;;74.50;31.13;;;9.40;99.90;;;;;;5059313;28;20187;-48
2024/02/11 03:02:45;;;;;;;75.50;30.23;;;9.30;99.90;;;;;;5060106;28;20201;-51
2024/02/11 03:05:11;;;;;;;67.40;29.50;;;9.30;99.90;;;;;;5057909;28;20210;-49
2024/02/11 03:07:40;;;;;;;81.82;29.88;;;9.40;99.90;;;;;;5059171;28;20190;-52
2024/02/11 03:10:16;;;;;;;84.93;29.77;;;9.30;99.90;;;;;;5059785;28;20198;-51
2024/02/11 03:12:42;;;;;;;79.80;27.20;;;9.30;99.90;;;;;;5060278;28;20187;-53
2024/02/11 03:15:10;;;;;;;69.57;27.67;;;9.30;99.90;;;;;;5059683;28;20186;-51
2024/02/11 03:17:36;;;;;;;69.32;26.35;;;9.30;99.90;;;;;;5059676;28;20658;-56
2024/02/11 03:20:03;;;;;;;67.20;27.80;;;9.20;99.90;;;;;;5059322;28;21237;-50
2024/02/11 03:22:29;;;;;;;66.70;26.85;;;9.20;99.90;;;;;;5059728;28;20254;-53
2024/02/11 03:24:54;;;;;;;65.10;27.15;;;9.20;99.90;;;;;;5060326;28;20210;-46
2024/02/11 03:27:23;;;;;;;68.30;25.80;;;9.20;99.90;;;;;;5059802;28;20229;-51
2024/02/11 03:29:49;;;;;;;62.50;25.15;;;9.20;99.90;;;;;;5060016;28;20206;-49
2024/02/11 03:32:16;;;;;;;77.05;25.65;;;9.10;99.90;;;;;;5059991;28;20206;-50
2024/02/11 03:34:42;;;;;;;81.72;24.10;;;9.20;99.90;;;;;;5059479;28;20224;-50
2024/02/11 03:37:07;;;;;;;77.00;26.05;;;9.20;99.90;;;;;;5057859;28;20195;-53
2024/02/11 03:39:36;;;;;;;53.15;24.05;;;9.10;99.90;;;;;;5057996;28;20245;-47
2024/02/11 03:42:03;;;;;;;79.32;23.70;;;9.10;99.90;;;;;;5059562;28;20199;-47
2024/02/11 03:44:29;;;;;;;55.78;23.40;;;9.20;99.90;;;;;;5060098;28;20690;-55
2024/02/11 03:46:55;;;;;;;63.33;22.73;;;9.10;99.90;;;;;;5059942;28;20191;-48
2024/02/11 03:49:23;;;;;;;77.70;25.08;;;9.10;99.90;;;;;;5057915;28;20716;-49
2024/02/11 03:51:49;;;;;;;75.63;24.30;;;9.10;99.90;;;;;;5059562;28;20860;-52
2024/02/11 03:54:17;;;;;;;65.57;24.50;;;9.10;99.90;;;;;;5063132;28;20186;-51
2024/02/11 03:56:42;;;;;;;70.65;22.15;;;9.10;99.90;;;;;;5063120;28;20681;-55
2024/02/11 03:59:10;;;;;;;76.90;23.52;;;9.00;99.90;;;;;;5077883;28;20182;-49
2024/02/11 04:01:36;;;;;;;52.63;21.80;;;9.00;99.90;;;;;;5063011;28;20198;-53
2024/02/11 04:04:03;;;;;;;70.10;23.42;;;9.00;99.90;;;;;;5061835;28;20218;-52
2024/02/11 04:06:30;;;;;;;75.88;24.88;;;8.90;99.90;;;;;;5063766;28;20175;-52
2024/02/11 04:08:57;;;;;;;80.90;25.42;;;8.90;99.90;;;;;;5062616;28;20193;-51
2024/02/11 04:11:27;;;;;;;91.95;25.95;;;8.90;99.90;;;;;;5062746;28;20659;-49
2024/02/11 04:13:54;;;;;;;69.90;25.73;;;8.90;99.90;;;;;;5063502;28;20252;-53
2024/02/11 04:16:22;;;;;;;61.13;22.58;;;8.90;99.90;;;;;;5078703;28;20202;-51
2024/02/11 04:18:49;;;;;;;86.95;26.67;;;8.90;99.90;;;;;;5062733;28;20655;-50
2024/02/11 04:21:20;;;;;;;81.65;28.20;;;8.90;99.90;;;;;;5063000;28;20186;-53
2024/02/11 04:23:48;;;;;;;76.75;24.75;;;8.80;99.90;;;;;;5062856;28;20194;-52
2024/02/11 04:26:17;;;;;;;91.43;27.23;;;8.80;99.90;;;;;;5062790;28;20654;-48
2024/02/11 04:28:47;;;;;;;89.03;29.50;;;8.80;99.90;;;;;;5060937;28;20190;-52
2024/02/11 04:31:13;;;;;;;91.68;28.10;;;8.80;99.90;;;;;;5062776;28;20533;-49
2024/02/11 04:33:39;;;;;;;86.15;28.77;;;8.80;99.90;;;;;;5061594;28;20201;-48
2024/02/11 04:36:11;;;;;;;105.72;29.00;;;8.80;99.90;;;;;;5063082;28;20186;-50
2024/02/11 04:38:37;;;;;;;78.43;26.42;;;8.80;99.90;;;;;;5062976;28;20593;-48
2024/02/11 04:41:05;;;;;;;85.25;30.10;;;8.80;99.90;;;;;;5062617;28;20218;-47
2024/02/11 04:43:36;;;;;;;96.03;30.15;;;8.80;99.90;;;;;;5062489;28;20198;-50
2024/02/11 04:46:03;;;;;;;68.80;27.95;;;8.80;99.90;;;;;;5062033;28;20198;-54
2024/02/11 04:48:32;;;;;;;82.22;29.30;;;8.80;99.90;;;;;;5063073;28;20202;-51
2024/02/11 04:50:59;;;;;;;86.13;28.30;;;8.80;99.90;;;;;;5044461;28;20198;-50
2024/02/11 04:53:27;;;;;;;81.72;27.60;;;8.80;99.90;;;;;;5062699;28;20310;-52
2024/02/11 04:55:53;;;;;;;79.93;28.75;;;8.80;99.90;;;;;;5060471;28;20389;-52
2024/02/11 04:58:19;;;;;;;85.90;27.50;;;8.70;99.90;;;;;;5062671;28;20191;-47
2024/02/11 05:00:50;;;;;;;79.40;27.63;;;8.80;99.90;;;;;;5048111;28;20205;-51
2024/02/11 05:03:19;;;;;;;92.97;27.60;;;8.80;99.90;;;;;;5062183;28;20183;-52
2024/02/11 05:05:50;;;;;;;76.07;28.73;;;8.80;99.90;;;;;;5062113;28;20212;-52
2024/02/11 05:08:16;;;;;;;78.07;28.58;;;8.70;99.90;;;;;;5057083;28;20182;-50
2024/02/11 05:10:44;;;;;;;81.88;30.98;;;8.70;99.90;;;;;;5062774;28;20187;-49
2024/02/11 05:13:13;;;;;;;92.13;31.38;;;8.70;99.90;;;;;;5062409;28;20220;-52
2024/02/11 05:15:43;;;;;;;82.53;29.88;;;8.70;99.90;;;;;;5062660;28;20194;-51
2024/02/11 05:18:14;;;;;;;84.65;30.67;;;8.70;99.90;;;;;;5061292;28;20305;-50
2024/02/11 05:20:41;;;;;;;80.75;29.27;;;8.70;99.90;;;;;;5062323;28;20662;-52
2024/02/11 05:23:10;;;;;;;93.15;30.85;;;8.70;99.90;;;;;;5061268;28;20191;-53
2024/02/11 05:25:38;;;;;;;74.18;28.98;;;8.70;99.90;;;;;;5060642;28;20229;-50
2024/02/11 05:28:13;;;;;;;88.55;29.10;;;8.70;99.90;;;;;;5062304;28;20197;-54
2024/02/11 05:30:43;;;;;;;91.78;30.88;;;8.70;99.90;;;;;;5062129;28;20186;-51
2024/02/11 05:33:12;;;;;;;92.72;31.15;;;8.70;99.90;;;;;;5061473;28;20309;-50
2024/02/11 05:35:39;;;;;;;87.68;30.63;;;8.70;99.90;;;;;;5062247;28;20260;-49
2024/02/11 05:38:08;;;;;;;94.93;31.00;;;8.70;99.90;;;;;;5061746;28;20186;-49
2024/02/11 05:40:44;;;;;;;81.15;30.48;;;8.70;99.90;;;;;;5060490;28;20222;-52
2024/02/11 05:43:21;;;;;;;80.65;30.60;;;8.70;99.90;;;;;;5061354;28;20277;-52
2024/02/11 05:45:47;;;;;;;86.80;28.95;;;8.70;99.90;;;;;;5059681;28;20224;-48
2024/02/11 05:48:13;;;;;;;82.00;30.30;;;8.80;99.90;;;;;;5061465;28;20183;-50
2024/02/11 05:50:39;;;;;;;93.65;31.33;;;8.80;99.90;;;;;;5061247;28;20193;-45
2024/02/11 05:53:06;;;;;;;89.75;30.08;;;8.80;99.90;;;;;;5061253;28;20190;-58
2024/02/11 05:55:33;;;;;;;92.22;30.77;;;8.70;99.90;;;;;;5061658;28;20243;-54
2024/02/11 05:57:58;;;;;;;86.22;32.08;;;8.80;99.90;;;;;;5061335;28;20198;-47
2024/02/11 06:00:29;;;;;;;79.55;30.02;;;8.70;99.90;;;;;;5061189;28;20191;-51
2024/02/11 06:02:56;;;;;;;96.72;30.33;;;8.80;99.90;;;;;;5045292;28;20236;-48
2024/02/11 06:05:23;;;;;;;88.85;30.63;;;8.70;99.90;;;;;;5058867;28;20210;-46
2024/02/11 06:07:50;;;;;;;100.47;32.70;;;8.80;99.90;;;;;;5059756;28;20201;-48
2024/02/11 06:10:16;;;;;;;94.00;32.10;;;8.80;99.90;;;;;;5060683;28;20186;-48
2024/02/11 06:12:44;;;;;;;90.65;31.95;;;8.80;99.90;;;;;;5060491;28;20255;-55
2024/02/11 06:15:11;;;;;;;82.05;29.30;;;8.80;99.90;;;;;;5060625;28;20187;-52
2024/02/11 06:17:37;;;;;;;94.15;31.55;;;8.80;99.90;;;;;;5060308;28;20217;-54
2024/02/11 06:20:04;;;;;;;90.55;31.95;;;8.80;99.90;;;;;;5060481;28;20186;-55
2024/02/11 06:22:30;;;;;;;91.72;31.70;;;8.80;99.90;;;;;;5059635;28;20195;-50
2024/02/11 06:24:56;;;;;;;78.28;30.60;;;8.80;99.90;;;;;;5058954;28;20232;-51
2024/02/11 06:27:22;;;;;;;89.18;31.15;;;8.80;99.90;;;;;;5060098;28;20208;-47
2024/02/11 06:29:48;;;;;;;96.57;31.13;;;8.80;99.90;;;;;;5059007;28;20186;-46
2024/02/11 06:32:13;;;;;;;91.22;33.05;;;8.80;99.90;;;;;;5060429;28;21288;-50
2024/02/11 06:34:40;;;;;;;102.15;32.22;;;8.70;99.90;;;;;;5060057;28;20179;-54
2024/02/11 06:37:06;;;;;;;102.05;32.72;;;8.80;99.90;;;;;;5060882;28;20194;-52
2024/02/11 06:39:32;;;;;;;107.95;32.60;;;8.70;99.90;;;;;;5059661;28;20226;-48
2024/02/11 06:42:05;;;;;;;100.50;32.55;;;8.70;99.90;;;;;;5060926;28;20189;-46
2024/02/11 06:44:32;;;;;;;111.40;31.42;;;8.70;99.90;;;;;;5059789;28;20204;-52
2024/02/11 06:46:58;;;;;;;107.05;33.30;;;8.70;99.90;;;;;;5059929;28;20199;-51
2024/02/11 06:49:25;;;;;;;104.78;33.50;;;8.70;99.90;;;;;;5060460;28;20191;-49
2024/02/11 06:51:51;;;;;;;105.45;32.53;;;8.70;99.90;;;;;;5059500;28;21061;-53
2024/02/11 06:54:21;;;;;;;111.50;33.22;;;8.70;99.90;;;;;;5059414;28;20225;-51
2024/02/11 06:56:47;;;;;;;93.60;32.65;;;8.70;99.90;;;;;;5059360;28;20305;-52
2024/02/11 06:59:14;;;;;;;98.53;32.30;;;8.70;99.90;;;;;;5075691;28;20212;-53
2024/02/11 07:01:42;;;;;;;100.03;32.00;;;8.70;99.90;;;;;;5059937;28;20226;-51
2024/02/11 07:04:12;;;;;;;97.97;32.90;;;8.70;99.90;;;;;;5055646;28;20300;-48
2024/02/11 07:06:44;;;;;;;93.97;32.22;;;8.70;99.90;;;;;;5059619;28;20231;-55
2024/02/11 07:09:12;;;;;;;104.53;33.97;;;8.70;99.90;;;;;;5059381;28;20546;-52
2024/02/11 07:11:40;;;;;;;121.95;34.00;;;8.60;99.90;;;;;;5058632;28;20198;-49
2024/02/11 07:14:07;;;;;;;99.95;33.58;;;8.70;99.90;;;;;;5059206;28;20686;-53
2024/02/11 07:16:39;;;;;;;103.57;33.95;;;8.60;99.90;;;;;;5060550;28;20182;-46
2024/02/11 07:19:08;;;;;;;90.10;34.13;;;8.60;99.90;;;;;;5059639;28;20666;-52
2024/02/11 07:21:36;;;;;;;98.13;33.28;;;8.70;99.90;;;;;;5060024;28;20198;-48
2024/02/11 07:24:12;;;;;;;102.55;32.47;;;8.70;99.90;;;;;;5059590;28;20206;-50
2024/02/11 07:26:39;;;;;;;112.63;33.50;;;8.70;99.90;;;;;;5059940;28;20201;-51
2024/02/11 07:29:04;;;;;;;103.78;33.00;;;8.70;99.90;;;;;;5063933;28;20185;-51
2024/02/11 07:31:33;;;;;;;107.47;33.80;;;8.70;99.90;;;;;;5064829;28;20187;-49
2024/02/11 07:34:02;;;;;;;89.57;32.28;;;8.70;99.90;;;;;;5064959;28;20663;-47
2024/02/11 07:36:28;;;;;;;94.70;32.00;;;8.70;99.90;;;;;;5065906;28;20190;-55
2024/02/11 07:38:55;;;;;;;93.07;32.13;;;8.70;99.90;;;;;;5066616;28;20191;-50
2024/02/11 07:41:22;;;;;;;99.70;32.83;;;8.70;99.90;;;;;;5065203;28;20209;-53
2024/02/11 07:43:48;;;;;;;87.85;31.88;;;8.70;99.90;;;;;;5081711;28;20715;-54
2024/02/11 07:46:13;;;;;;;86.13;32.03;;;8.70;99.90;;;;;;5066681;28;20269;-49
2024/02/11 07:48:40;;;;;;;95.35;31.92;;;8.70;99.90;;;;;;5066369;28;20186;-47
2024/02/11 07:51:06;;;;;;;88.75;32.42;;;8.70;99.90;;;;;;5065145;28;20570;-52
2024/02/11 07:53:33;;;;;;;91.35;32.05;;;8.70;99.90;;;;;;5065987;28;20647;-52
2024/02/11 07:55:59;;;;;;;108.78;33.00;;;8.70;99.90;;;;;;5066569;28;20780;-49
2024/02/11 07:58:25;;;;;;;87.28;31.85;;;8.60;99.90;;;;;;5065843;28;20202;-46
2024/02/11 08:00:51;;;;;;;94.93;31.83;;;8.70;99.90;;;;;;5066080;28;20198;-51
2024/02/11 08:03:17;;;;;;;91.47;32.55;;;8.70;99.90;;;;;;5066170;28;20202;-49
2024/02/11 08:05:44;;;;;;;75.45;29.17;;;8.70;99.90;;;;;;5064965;28;20233;-54
2024/02/11 08:08:10;;;;;;;115.53;32.97;;;8.70;99.90;;;;;;5066957;28;20182;-53
2024/02/11 08:10:35;;;;;;;102.78;31.83;;;8.80;99.90;;;;;;5064545;28;20529;-51
2024/02/11 08:13:01;;;;;;;112.13;33.50;;;8.80;99.90;;;;;;5066634;28;20285;-52
2024/02/11 08:15:27;;;;;;;80.30;30.40;;;8.80;99.90;;;;;;5066480;28;20187;-52
2024/02/11 08:17:53;;;;;;;101.65;32.17;;;8.80;99.90;;;;;;5066614;28;20201;-47
2024/02/11 08:20:19;;;;;;;94.75;32.15;;;8.80;99.90;;;;;;5064923;28;20289;-56
2024/02/11 08:22:48;;;;;;;89.55;30.52;;;8.80;99.90;;;;;;5064725;28;20715;-52
2024/02/11 08:25:14;;;;;;;87.70;31.35;;;8.80;99.90;;;;;;5066095;28;20217;-47
2024/02/11 08:27:41;;;;;;;97.93;32.05;;;8.80;99.90;;;;;;5066066;28;20187;-50
2024/02/11 08:30:09;;;;;;;107.10;31.77;;;8.80;99.90;;;;;;5066236;28;20194;-52
2024/02/11 08:32:36;;;;;;;80.57;31.42;;;8.80;99.90;;;;;;5065934;28;20178;-51
2024/02/11 08:35:03;;;;;;;86.70;31.08;;;8.80;99.90;;;;;;5065771;28;20239;-53
2024/02/11 08:37:28;;;;;;;98.07;32.03;;;8.90;99.90;;;;;;5065950;28;20194;-50
2024/02/11 08:39:54;;;;;;;95.30;31.73;;;8.90;99.90;;;;;;5062551;28;20194;-49
2024/02/11 08:42:20;;;;;;;84.28;31.23;;;8.90;99.90;;;;;;5062797;28;20276;-54
2024/02/11 08:44:46;;;;;;;94.70;32.38;;;8.90;99.90;;;;;;5062422;28;20203;-54
2024/02/11 08:47:12;;;;;;;98.95;30.08;;;8.90;99.90;;;;;;5062908;28;20199;-52
2024/02/11 08:49:39;;;;;;;97.25;31.20;;;8.90;99.90;;;;;;5062757;28;20239;-55
2024/02/11 08:52:06;;;;;;;103.28;32.63;;;9.00;99.90;;;;;;5061959;28;20221;-48
2024/02/11 08:54:34;;;;;;;96.00;30.25;;;9.00;99.90;;;;;;5062295;28;20195;-52
2024/02/11 08:57:01;;;;;;;94.80;31.92;;;9.00;99.90;;;;;;5062381;28;20186;-52
2024/02/11 08:59:30;;;;;;;93.70;32.13;;;9.10;99.90;;;;;;5063109;28;20198;-55
2024/02/11 09:01:56;;;;;;;83.95;30.85;;;9.10;99.90;;;;;;5060541;28;20241;-55
2024/02/11 09:04:23;;;;;;;94.72;31.25;;;9.10;99.90;;;;;;5062599;28;20233;-52
2024/02/11 09:06:55;;;;;;;87.28;30.63;;;9.10;99.90;;;;;;5075692;28;20239;-55
2024/02/11 09:09:27;;;;;;;74.68;29.77;;;9.10;99.90;;;;;;5059752;28;20210;-52
2024/02/11 09:11:58;;;;;;;80.07;30.33;;;9.20;99.90;;;;;;5062149;28;21159;-53
2024/02/11 09:14:26;;;;;;;88.72;31.13;;;9.20;99.90;;;;;;5062266;28;20178;-49
2024/02/11 09:16:59;;;;;;;85.13;28.92;;;9.20;99.90;;;;;;5042705;28;20294;-56
2024/02/11 09:19:27;;;;;;;72.43;28.27;;;9.20;99.90;;;;;;5043924;28;20312;-53
2024/02/11 09:21:59;;;;;;;79.80;29.00;;;9.20;99.90;;;;;;5061497;28;20238;-49
2024/02/11 09:24:25;;;;;;;71.20;28.70;;;9.20;99.90;;;;;;5061591;28;20214;-54
2024/02/11 09:26:51;;;;;;;74.40;29.30;;;9.20;99.90;;;;;;5061183;28;20191;-54
2024/02/11 09:29:17;;;;;;;71.97;29.83;;;9.20;99.90;;;;;;5061787;28;20264;-54
2024/02/11 09:31:44;;;;;;;71.03;28.63;;;9.30;99.90;;;;;;5043289;28;20209;-54
2024/02/11 09:34:10;;;;;;;74.35;29.10;;;9.30;99.90;;;;;;5060282;28;20783;-53
2024/02/11 09:36:38;;;;;;;82.50;28.33;;;9.30;99.90;;;;;;5061163;28;21262;-52
2024/02/11 09:39:04;;;;;;;75.38;29.58;;;9.30;99.90;;;;;;5060984;28;20278;-48
2024/02/11 09:41:30;;;;;;;73.25;28.45;;;9.30;99.90;;;;;;5056582;28;20321;-52
2024/02/11 09:44:02;;;;;;;71.80;29.35;;;9.40;99.90;;;;;;5060309;28;20281;-54
2024/02/11 09:46:30;;;;;;;72.22;29.42;;;9.40;99.90;;;;;;5055980;28;20718;-55
2024/02/11 09:48:58;;;;;;;75.30;28.73;;;9.40;99.90;;;;;;5061043;28;20194;-52
2024/02/11 09:51:26;;;;;;;75.15;29.25;;;9.40;99.90;;;;;;5059101;28;20674;-52
2024/02/11 09:54:02;;;;;;;73.63;29.77;;;9.40;99.90;;;;;;5061132;28;20213;-56
2024/02/11 09:56:29;;;;;;;67.68;29.25;;;9.40;99.90;;;;;;5061058;28;20194;-50
2024/02/11 09:58:56;;;;;;;68.20;29.23;;;9.50;99.90;;;;;;5060348;28;20178;-53
2024/02/11 10:01:22;;;;;;;75.97;29.65;;;9.50;99.90;;;;;;5060866;28;20194;-54
2024/02/11 10:03:53;;;;;;;76.68;30.70;;;9.50;99.90;;;;;;5061134;28;20199;-56
2024/02/11 10:06:26;;;;;;;69.05;29.75;;;9.60;99.90;;;;;;5060953;28;20186;-53
2024/02/11 10:08:52;;;;;;;68.35;30.45;;;9.60;99.90;;;;;;5061259;28;20670;-52
2024/02/11 10:11:18;;;;;;;78.65;30.98;;;9.60;99.90;;;;;;5061620;28;20186;-52
2024/02/11 10:13:44;;;;;;;73.88;31.17;;;9.60;99.90;;;;;;5060161;28;20768;-53
2024/02/11 10:16:12;;;;;;;83.07;33.08;;;9.70;99.90;;;;;;5061105;28;20186;-48
2024/02/11 10:18:41;;;;;;;72.53;31.40;;;9.70;99.90;;;;;;5061356;28;20244;-53
2024/02/11 10:21:08;;;;;;;71.82;30.20;;;9.70;99.90;;;;;;5060683;28;20229;-52
2024/02/11 10:23:44;;;;;;;69.00;31.58;;;9.70;99.90;;;;;;5060304;28;20255;-55
2024/02/11 10:26:11;;;;;;;70.13;31.83;;;9.80;99.90;;;;;;5060340;28;20542;-55
2024/02/11 10:28:39;;;;;;;68.10;30.65;;;9.80;99.90;;;;;;5061148;28;20659;-51
2024/02/11 10:31:05;;;;;;;74.20;31.05;;;9.80;99.90;;;;;;5060422;28;20202;-51
2024/02/11 10:33:32;;;;;;;73.07;32.53;;;9.80;99.90;;;;;;5091734;28;20217;-53
2024/02/11 10:36:06;;;;;;;68.65;31.15;;;9.90;99.90;;;;;;5059740;28;20244;-51
2024/02/11 10:38:33;;;;;;;75.78;32.85;;;9.90;99.90;;;;;;5059360;28;20190;-49
2024/02/11 10:41:03;;;;;;;67.55;31.67;;;9.90;99.90;;;;;;5060351;28;20706;-49
2024/02/11 10:43:33;;;;;;;67.28;30.85;;;10.00;99.90;;;;;;5060194;28;20290;-51
2024/02/11 10:46:01;;;;;;;67.43;31.60;;;10.00;99.90;;;;;;5060731;28;20283;-52
2024/02/11 10:48:27;;;;;;;67.07;33.00;;;10.00;99.90;;;;;;5059980;28;20720;-51
2024/02/11 10:51:03;;;;;;;67.40;31.95;;;10.10;99.90;;;;;;5058706;28;20236;-46
2024/02/11 10:53:34;;;;;;;64.80;31.40;;;10.10;99.90;;;;;;5059924;28;22010;-54
2024/02/11 10:56:02;;;;;;;65.35;32.38;;;10.20;99.90;;;;;;5060284;28;20187;-53
2024/02/11 10:58:33;;;;;;;61.72;32.15;;;10.20;99.90;;;;;;5059675;28;20202;-53
2024/02/11 11:01:02;;;;;;;64.95;30.98;;;10.20;99.90;;;;;;5059823;28;20186;-53
2024/02/11 11:03:29;;;;;;;64.95;31.77;;;10.20;99.90;;;;;;5059624;28;20186;-55
2024/02/11 11:05:57;;;;;;;65.30;32.15;;;10.20;99.90;;;;;;5060618;28;20249;-49
2024/02/11 11:08:23;;;;;;;66.10;32.10;;;10.30;99.90;;;;;;5059892;28;20247;-53
2024/02/11 11:10:49;;;;;;;68.70;33.60;;;10.30;99.90;;;;;;5060017;28;20674;-53
2024/02/11 11:13:23;;;;;;;66.03;31.42;;;10.30;99.90;;;;;;5059253;28;20191;-50
2024/02/11 11:15:50;;;;;;;68.38;33.35;;;10.40;99.90;;;;;;5060343;28;20182;-54
2024/02/11 11:18:21;;;;;;;69.07;34.45;;;10.40;99.90;;;;;;5059170;28;20313;-56
2024/02/11 11:20:52;;;;;;;77.78;37.15;;;10.40;99.90;;;;;;5058681;28;20186;-54
2024/02/11 11:23:18;;;;;;;64.30;33.67;;;10.50;99.90;;;;;;5059440;28;20232;-49
2024/02/11 11:25:44;;;;;;;63.05;31.02;;;10.50;99.90;;;;;;5059708;28;20206;-51
2024/02/11 11:28:09;;;;;;;59.15;31.80;;;10.50;99.90;;;;;;5059610;28;20198;-57
2024/02/11 11:30:35;;;;;;;62.50;31.48;;;10.60;99.90;;;;;;5059534;28;20187;-53
2024/02/11 11:33:04;;;;;;;65.13;33.30;;;10.60;99.90;;;;;;5057724;28;20190;-52
2024/02/11 11:35:30;;;;;;;68.93;33.90;;;10.60;99.90;;;;;;5060122;28;20205;-55
2024/02/11 11:38:00;;;;;;;69.05;33.60;;;10.70;99.90;;;;;;5059814;28;20196;-56
2024/02/11 11:40:28;;;;;;;69.47;34.72;;;10.70;99.90;;;;;;5059898;28;20290;-52
2024/02/11 11:42:57;;;;;;;67.97;33.08;;;10.70;99.90;;;;;;5058937;28;20228;-50
2024/02/11 11:45:23;;;;;;;69.60;35.38;;;10.80;99.90;;;;;;5057425;28;20977;-53
2024/02/11 11:47:51;;;;;;;68.10;36.05;;;10.80;99.90;;;;;;5059479;28;20289;-58
2024/02/11 11:50:20;;;;;;;66.35;35.00;;;10.80;99.90;;;;;;5058614;28;20198;-53
2024/02/11 11:52:49;;;;;;;58.65;33.25;;;10.80;99.90;;;;;;5059079;28;20301;-51
2024/02/11 11:55:15;;;;;;;67.30;35.28;;;10.80;99.90;;;;;;5057691;28;20179;-51
2024/02/11 11:57:41;;;;;;;68.78;36.53;;;10.80;99.90;;;;;;5059547;28;20743;-53
2024/02/11 12:00:08;;;;;;;63.17;33.38;;;10.80;99.90;;;;;;5059219;28;20218;-52
2024/02/11 12:02:39;;;;;;;33.72;20.65;;;10.90;99.90;;;;;;5059845;28;20303;-52
2024/02/11 12:05:08;;;;;;;18.77;13.55;;;10.80;99.90;;;;;;5058992;28;20206;-52
2024/02/11 12:07:34;;;;;;;16.52;11.63;;;10.80;99.90;;;;;;5059670;28;20720;-53
2024/02/11 12:10:00;;;;;;;13.57;10.27;;;10.80;99.90;;;;;;5059156;28;20190;-51
2024/02/11 12:12:26;;;;;;;14.80;11.05;;;10.80;99.90;;;;;;5057712;28;20195;-58
2024/02/11 12:14:52;;;;;;;11.43;8.95;;;10.70;99.90;;;;;;5043005;28;20191;-55
2024/02/11 12:17:18;;;;;;;10.13;8.35;;;10.70;99.90;;;;;;5063521;28;20229;-49
2024/02/11 12:19:48;;;;;;;11.30;8.20;;;10.70;99.90;;;;;;5078801;28;20195;-52
2024/02/11 12:22:14;;;;;;;14.40;10.07;;;10.70;99.90;;;;;;5062818;28;20191;-53
2024/02/11 12:24:41;;;;;;;8.90;7.57;;;10.70;99.90;;;;;;5061767;28;20292;-55
2024/02/11 12:27:17;;;;;;;8.57;7.20;;;10.60;99.90;;;;;;5062851;28;20197;-53
2024/02/11 12:29:58;;;;;;;11.05;7.60;;;10.70;99.90;;;;;;5062744;28;20696;-52
2024/02/11 12:32:25;;;;;;;9.98;7.97;;;10.70;99.90;;;;;;5062725;28;20190;-50
2024/02/11 12:34:56;;;;;;;9.23;7.70;;;10.70;99.90;;;;;;5062310;28;20213;-51